Time;durP1;ratioP1;P1;durP2;ratioP2;P2;SDS_P1;SDS_P2;PMS_P1;PMS_P2;Temp;Humidity;BMP_temperature;BMP_pressure;BME280_temperature;BME280_humidity;BME280_pressure;Samples;Min_cycle;Max_cycle;Signal;HPM_P1;HPM_P2
2020/12/11 00:00:18;;;;;;;2.38;1.98;;;2.80;86.30;;;;;;5053018;28;20025;-80
2020/12/11 00:02:44;;;;;;;2.60;2.00;;;2.70;86.30;;;;;;5053347;28;20025;-80
2020/12/11 00:05:09;;;;;;;3.22;2.20;;;2.70;86.30;;;;;;5052519;28;20029;-80
2020/12/11 00:07:36;;;;;;;3.25;2.20;;;2.70;86.40;;;;;;5053967;28;20036;-80
2020/12/11 00:10:04;;;;;;;2.95;1.75;;;2.70;86.40;;;;;;5053614;28;20052;-80
2020/12/11 00:12:29;;;;;;;2.47;1.85;;;2.70;86.40;;;;;;5053661;28;20017;-80
2020/12/11 00:14:55;;;;;;;2.85;2.38;;;2.70;86.30;;;;;;5054294;28;20044;-80
2020/12/11 00:17:20;;;;;;;2.45;1.88;;;2.70;86.20;;;;;;5053270;28;20029;-79
2020/12/11 00:19:46;;;;;;;2.25;1.60;;;2.70;86.20;;;;;;5057929;28;20085;-80
2020/12/11 00:22:14;;;;;;;2.22;1.85;;;2.70;86.20;;;;;;5055769;28;20116;-80
2020/12/11 00:24:41;;;;;;;1.73;1.55;;;2.70;86.20;;;;;;5056342;28;20067;-80
2020/12/11 00:27:07;;;;;;;2.25;1.88;;;2.80;86.20;;;;;;5048255;28;20163;-79
2020/12/11 00:29:33;;;;;;;2.47;1.77;;;2.80;86.20;;;;;;5049164;28;20491;-81
2020/12/11 00:32:02;;;;;;;2.53;2.28;;;2.80;86.10;;;;;;5048985;28;20029;-80
2020/12/11 00:34:28;;;;;;;2.85;1.98;;;2.90;86.10;;;;;;5034395;28;20140;-80
2020/12/11 00:36:54;;;;;;;2.05;1.67;;;2.90;85.90;;;;;;5032161;28;20022;-80
2020/12/11 00:39:19;;;;;;;2.17;1.88;;;2.90;85.90;;;;;;5033584;28;20391;-80
2020/12/11 00:41:45;;;;;;;1.90;1.60;;;2.90;86.40;;;;;;5047235;28;20470;-80
2020/12/11 00:44:10;;;;;;;2.45;2.15;;;2.90;85.70;;;;;;5053257;28;20119;-79
2020/12/11 00:46:36;;;;;;;2.45;1.83;;;2.90;85.80;;;;;;5052897;28;20075;-80
2020/12/11 00:49:02;;;;;;;2.80;2.05;;;2.90;85.80;;;;;;5052959;28;20094;-80
2020/12/11 00:51:27;;;;;;;2.97;1.80;;;2.90;85.70;;;;;;5053249;28;20060;-80
2020/12/11 00:53:53;;;;;;;2.53;1.65;;;3.00;85.90;;;;;;5052258;28;20062;-80
2020/12/11 00:56:18;;;;;;;2.85;2.15;;;3.00;85.70;;;;;;5052231;28;20095;-81
2020/12/11 00:58:45;;;;;;;2.35;2.15;;;3.00;85.80;;;;;;5052888;28;20040;-80
2020/12/11 01:01:10;;;;;;;4.10;2.00;;;3.00;85.80;;;;;;5052367;28;20347;-81
2020/12/11 01:03:36;;;;;;;3.45;2.20;;;3.00;85.70;;;;;;5052645;28;20040;-80
2020/12/11 01:06:02;;;;;;;2.80;2.17;;;3.00;85.70;;;;;;5052365;28;20036;-80
2020/12/11 01:08:27;;;;;;;2.30;2.00;;;3.00;85.60;;;;;;5053230;28;20033;-80
2020/12/11 01:10:53;;;;;;;3.42;1.90;;;3.00;85.60;;;;;;5050676;28;20021;-80
2020/12/11 01:13:19;;;;;;;2.60;2.10;;;3.00;85.60;;;;;;5053263;28;20052;-81
2020/12/11 01:15:44;;;;;;;2.33;1.70;;;3.00;85.60;;;;;;5052075;28;20033;-80
2020/12/11 01:18:10;;;;;;;3.78;2.58;;;3.00;85.60;;;;;;5051690;28;20063;-80
2020/12/11 01:20:35;;;;;;;2.40;2.10;;;3.00;85.50;;;;;;5052455;28;20417;-81
2020/12/11 01:23:01;;;;;;;2.63;2.30;;;3.00;85.50;;;;;;5051220;28;20025;-81
2020/12/11 01:25:26;;;;;;;2.65;2.17;;;3.10;85.50;;;;;;5051997;28;20112;-81
2020/12/11 01:27:52;;;;;;;2.15;1.52;;;3.00;85.50;;;;;;5052269;28;20021;-81
2020/12/11 01:30:17;;;;;;;3.15;2.25;;;3.00;85.50;;;;;;5050896;28;20508;-80
2020/12/11 01:32:43;;;;;;;3.95;2.10;;;3.00;85.60;;;;;;5052750;28;20032;-81
2020/12/11 01:35:09;;;;;;;2.55;2.00;;;3.00;85.60;;;;;;5056677;28;20024;-81
2020/12/11 01:37:35;;;;;;;2.22;1.90;;;3.00;85.60;;;;;;5056138;28;20044;-81
2020/12/11 01:40:01;;;;;;;2.22;2.00;;;3.00;85.70;;;;;;5049665;28;20054;-81
2020/12/11 01:42:26;;;;;;;2.90;2.03;;;3.00;85.70;;;;;;5054085;28;20120;-81
2020/12/11 01:44:53;;;;;;;1.58;1.48;;;2.90;85.70;;;;;;5056130;28;20045;-81
2020/12/11 01:47:20;;;;;;;1.70;1.60;;;3.00;85.80;;;;;;5056121;28;20052;-81
2020/12/11 01:49:46;;;;;;;2.97;2.47;;;2.90;85.70;;;;;;5071386;28;20021;-80
2020/12/11 01:52:14;;;;;;;2.38;1.80;;;2.90;85.80;;;;;;5056022;28;20029;-81
2020/12/11 01:54:40;;;;;;;2.35;2.13;;;2.90;85.90;;;;;;5055768;28;20400;-80
2020/12/11 01:57:09;;;;;;;2.97;1.88;;;2.90;86.60;;;;;;5053329;28;20466;-81
2020/12/11 01:59:40;;;;;;;2.08;1.80;;;2.90;85.90;;;;;;5052863;28;20033;-81
2020/12/11 02:02:09;;;;;;;1.90;1.77;;;2.80;85.90;;;;;;5056764;28;20033;-81
2020/12/11 02:04:36;;;;;;;2.53;2.33;;;2.90;85.90;;;;;;5055428;28;20025;-81
2020/12/11 02:07:02;;;;;;;2.65;2.05;;;2.80;85.90;;;;;;5055730;28;20041;-81
2020/12/11 02:09:31;;;;;;;1.70;1.42;;;2.80;85.90;;;;;;5056446;28;20013;-81
2020/12/11 02:11:57;;;;;;;3.13;1.70;;;2.80;86.00;;;;;;5055216;28;20028;-81
2020/12/11 02:14:23;;;;;;;2.88;1.88;;;2.80;86.00;;;;;;5054801;28;20366;-80
2020/12/11 02:16:48;;;;;;;2.60;2.05;;;2.80;86.10;;;;;;5056593;28;20132;-81
2020/12/11 02:19:14;;;;;;;2.63;1.90;;;2.80;86.10;;;;;;5060121;28;20033;-81
2020/12/11 02:21:40;;;;;;;2.28;2.03;;;2.70;86.10;;;;;;5058430;28;20028;-81
2020/12/11 02:24:06;;;;;;;2.15;1.95;;;2.70;86.10;;;;;;5062275;28;20025;-80
2020/12/11 02:26:31;;;;;;;2.17;1.80;;;2.70;86.20;;;;;;5055730;28;20382;-81
2020/12/11 02:28:57;;;;;;;2.92;1.90;;;2.70;86.20;;;;;;5054775;28;20036;-81
2020/12/11 02:31:23;;;;;;;2.35;1.80;;;2.70;86.20;;;;;;5054504;28;20103;-81
2020/12/11 02:33:48;;;;;;;3.03;2.28;;;2.70;86.30;;;;;;5055282;28;20043;-81
2020/12/11 02:36:18;;;;;;;2.47;1.98;;;2.70;86.30;;;;;;5054260;28;20108;-81
2020/12/11 02:38:43;;;;;;;3.20;1.98;;;2.60;86.20;;;;;;5054499;28;20458;-81
2020/12/11 02:41:09;;;;;;;3.42;2.60;;;2.60;86.30;;;;;;5052161;28;20021;-80
2020/12/11 02:43:37;;;;;;;3.42;2.10;;;2.60;86.30;;;;;;5053883;28;20021;-81
2020/12/11 02:46:03;;;;;;;2.83;2.17;;;2.60;86.30;;;;;;5053139;28;20071;-80
2020/12/11 02:48:29;;;;;;;2.55;1.73;;;2.50;86.30;;;;;;5053597;28;20071;-81
2020/12/11 02:50:56;;;;;;;2.30;2.05;;;2.50;86.30;;;;;;5055190;28;20060;-81
2020/12/11 02:53:22;;;;;;;2.22;1.52;;;2.50;86.50;;;;;;5054561;28;20343;-80
2020/12/11 02:55:48;;;;;;;3.40;2.33;;;2.40;86.50;;;;;;5045448;28;20021;-80
2020/12/11 02:58:14;;;;;;;1.60;1.50;;;2.40;86.50;;;;;;5053583;28;20021;-81
2020/12/11 03:00:39;;;;;;;2.22;1.70;;;2.40;86.60;;;;;;5054825;28;20060;-81
2020/12/11 03:03:05;;;;;;;2.15;1.80;;;2.40;87.20;;;;;;5054402;28;20104;-81
2020/12/11 03:05:31;;;;;;;2.78;1.92;;;2.40;86.60;;;;;;5056084;28;20033;-80
2020/12/11 03:07:56;;;;;;;1.63;1.42;;;2.40;86.60;;;;;;5055708;28;20044;-81
2020/12/11 03:10:22;;;;;;;2.55;2.17;;;2.30;86.50;;;;;;5056908;28;20040;-80
2020/12/11 03:12:47;;;;;;;2.97;2.00;;;2.30;86.50;;;;;;5059741;28;20538;-81
2020/12/11 03:15:13;;;;;;;2.40;1.80;;;2.30;86.50;;;;;;5058943;28;20033;-80
2020/12/11 03:17:38;;;;;;;3.30;2.00;;;2.30;86.50;;;;;;5060383;28;20047;-80
2020/12/11 03:20:04;;;;;;;2.03;1.70;;;2.30;86.60;;;;;;5057048;28;20021;-81
2020/12/11 03:22:29;;;;;;;2.17;1.88;;;2.30;86.60;;;;;;5047136;28;20312;-81
2020/12/11 03:24:55;;;;;;;2.30;1.85;;;2.30;86.60;;;;;;5034727;28;20048;-80
2020/12/11 03:27:21;;;;;;;1.88;1.67;;;2.20;86.60;;;;;;5046030;28;20028;-80
2020/12/11 03:29:46;;;;;;;2.30;1.98;;;2.20;86.60;;;;;;5056148;28;20025;-81
2020/12/11 03:32:12;;;;;;;3.78;2.70;;;2.30;86.60;;;;;;5054271;28;20028;-80
2020/12/11 03:34:37;;;;;;;2.10;1.90;;;2.30;86.60;;;;;;5054735;28;20021;-80
2020/12/11 03:37:03;;;;;;;2.60;2.08;;;2.30;86.50;;;;;;5054186;28;20017;-81
2020/12/11 03:39:28;;;;;;;3.03;2.78;;;2.30;86.50;;;;;;5053131;28;20032;-80
2020/12/11 03:41:54;;;;;;;1.70;1.60;;;2.30;86.50;;;;;;5051914;28;20032;-81
2020/12/11 03:44:20;;;;;;;2.70;2.15;;;2.20;86.50;;;;;;5053416;28;20024;-80
2020/12/11 03:46:45;;;;;;;2.78;2.00;;;2.30;86.50;;;;;;5052111;28;20072;-80
2020/12/11 03:49:12;;;;;;;2.00;1.70;;;2.20;86.50;;;;;;5054382;28;20052;-80
2020/12/11 03:51:38;;;;;;;2.15;1.77;;;2.20;86.60;;;;;;5052597;28;20025;-80
2020/12/11 03:54:04;;;;;;;3.72;2.47;;;2.20;86.70;;;;;;5052373;28;20021;-80
2020/12/11 03:56:29;;;;;;;3.35;1.85;;;2.10;86.70;;;;;;5051239;28;20025;-81
2020/12/11 03:58:55;;;;;;;2.25;2.00;;;2.10;86.70;;;;;;5054395;28;20017;-81
2020/12/11 04:01:21;;;;;;;2.80;2.00;;;2.10;86.80;;;;;;5051469;28;20044;-81
2020/12/11 04:03:47;;;;;;;3.28;2.28;;;2.10;86.70;;;;;;5053900;28;20536;-80
2020/12/11 04:06:15;;;;;;;2.60;2.05;;;2.10;86.70;;;;;;5054140;28;20033;-81
2020/12/11 04:08:41;;;;;;;2.42;1.80;;;2.10;86.80;;;;;;5054001;28;20029;-81
2020/12/11 04:11:12;;;;;;;1.70;1.60;;;2.10;86.90;;;;;;5051194;28;20021;-80
2020/12/11 04:13:39;;;;;;;2.75;1.98;;;2.10;86.80;;;;;;5035952;28;20040;-80
2020/12/11 04:16:04;;;;;;;3.47;2.22;;;2.00;86.80;;;;;;5052407;28;20029;-81
2020/12/11 04:18:30;;;;;;;3.88;2.20;;;2.00;86.80;;;;;;5052087;28;20068;-80
2020/12/11 04:20:56;;;;;;;3.22;2.35;;;2.00;86.90;;;;;;5052898;28;20070;-80
2020/12/11 04:23:23;;;;;;;2.30;2.10;;;2.00;86.90;;;;;;5051966;28;20047;-80
2020/12/11 04:25:48;;;;;;;4.38;2.97;;;2.00;86.80;;;;;;5052846;28;20033;-81
2020/12/11 04:28:14;;;;;;;2.33;1.88;;;2.00;86.80;;;;;;5050635;28;20128;-81
2020/12/11 04:30:40;;;;;;;3.78;2.35;;;2.00;86.80;;;;;;5053869;28;20029;-81
2020/12/11 04:33:06;;;;;;;2.65;2.35;;;2.00;86.80;;;;;;5051601;28;20024;-80
2020/12/11 04:35:32;;;;;;;2.70;2.10;;;2.10;86.90;;;;;;5050169;28;20430;-81
2020/12/11 04:37:58;;;;;;;2.40;1.88;;;2.10;86.70;;;;;;5052388;28;20127;-81
2020/12/11 04:40:23;;;;;;;2.65;2.17;;;2.10;86.70;;;;;;5052205;28;20033;-80
2020/12/11 04:42:51;;;;;;;2.03;1.83;;;2.20;86.60;;;;;;5053569;28;20025;-81
2020/12/11 04:45:17;;;;;;;2.28;1.70;;;2.20;86.50;;;;;;5052013;28;20085;-81
2020/12/11 04:47:44;;;;;;;2.75;1.98;;;2.20;86.50;;;;;;5051426;28;20037;-81
2020/12/11 04:50:12;;;;;;;3.95;2.60;;;2.20;86.40;;;;;;5052958;28;20075;-81
2020/12/11 04:52:41;;;;;;;2.88;2.17;;;2.30;86.40;;;;;;5053227;28;20033;-81
2020/12/11 04:55:13;;;;;;;3.38;2.33;;;2.30;86.40;;;;;;5051721;28;20036;-80
2020/12/11 04:57:50;;;;;;;2.50;1.88;;;2.30;86.40;;;;;;5052518;28;20067;-81
2020/12/11 05:00:18;;;;;;;3.22;2.50;;;2.30;86.30;;;;;;5053033;28;20025;-81
2020/12/11 05:02:45;;;;;;;3.85;2.47;;;2.40;86.40;;;;;;5042831;28;20025;-81
2020/12/11 05:05:11;;;;;;;1.90;1.80;;;2.40;86.30;;;;;;5052479;28;20466;-80
2020/12/11 05:07:38;;;;;;;3.63;2.22;;;2.40;86.30;;;;;;5055446;28;20017;-80
2020/12/11 05:10:08;;;;;;;1.75;1.65;;;2.40;86.20;;;;;;5057542;28;20017;-80
2020/12/11 05:12:34;;;;;;;2.38;1.90;;;2.50;86.30;;;;;;5062409;28;20013;-81
2020/12/11 05:15:03;;;;;;;3.00;1.95;;;2.50;86.30;;;;;;5061222;28;20044;-81
2020/12/11 05:17:30;;;;;;;3.00;2.00;;;2.50;86.30;;;;;;5063982;28;20021;-81
2020/12/11 05:19:57;;;;;;;4.03;2.65;;;2.50;86.20;;;;;;5057681;28;20102;-81
2020/12/11 05:22:25;;;;;;;4.50;2.47;;;2.50;86.20;;;;;;5056361;28;20025;-81
2020/12/11 05:24:53;;;;;;;3.50;2.60;;;2.50;86.30;;;;;;5045546;28;20029;-80
2020/12/11 05:27:41;;;;;;;2.90;2.17;;;2.50;86.30;;;;;;5057302;28;20021;-81
2020/12/11 05:30:10;;;;;;;4.43;2.80;;;2.50;86.30;;;;;;5054415;28;20396;-81
2020/12/11 05:32:56;;;;;;;2.45;1.90;;;2.50;86.30;;;;;;5057361;28;20048;-81
2020/12/11 05:35:28;;;;;;;3.28;2.00;;;2.50;86.30;;;;;;5054928;28;20039;-80
2020/12/11 05:38:05;;;;;;;2.50;2.10;;;2.60;86.40;;;;;;5057168;28;20027;-81
2020/12/11 05:40:37;;;;;;;3.03;2.03;;;2.60;86.30;;;;;;5055773;28;20035;-80
2020/12/11 05:43:19;;;;;;;2.97;2.08;;;2.70;86.70;;;;;;5037275;28;20390;-81
2020/12/11 05:45:53;;;;;;;2.55;1.70;;;2.80;86.30;;;;;;5046574;28;20053;-81
2020/12/11 05:48:20;;;;;;;1.98;1.83;;;2.90;85.80;;;;;;5055706;28;20033;-81
2020/12/11 05:50:46;;;;;;;2.63;2.22;;;3.00;85.60;;;;;;5056114;28;20029;-80
2020/12/11 05:53:12;;;;;;;3.40;2.60;;;3.00;85.50;;;;;;5056225;28;20043;-80
2020/12/11 05:55:38;;;;;;;2.92;2.30;;;3.10;85.40;;;;;;5054901;28;20053;-80
2020/12/11 05:58:07;;;;;;;3.63;2.10;;;3.10;85.30;;;;;;5056755;28;20032;-80
2020/12/11 06:00:32;;;;;;;2.97;2.30;;;3.20;85.30;;;;;;5053221;28;20029;-80
2020/12/11 06:03:00;;;;;;;3.42;2.03;;;3.20;85.30;;;;;;5037499;28;20044;-80
2020/12/11 06:05:26;;;;;;;2.65;2.22;;;3.20;85.30;;;;;;5045950;28;20052;-80
2020/12/11 06:07:53;;;;;;;2.63;1.90;;;3.20;85.30;;;;;;5056229;28;20025;-79
2020/12/11 06:10:21;;;;;;;2.10;1.85;;;3.30;85.30;;;;;;5054505;28;20029;-81
2020/12/11 06:12:47;;;;;;;2.63;1.90;;;3.30;85.20;;;;;;5055598;28;20100;-80
2020/12/11 06:15:22;;;;;;;2.22;2.03;;;3.40;85.30;;;;;;5054154;28;20382;-80
2020/12/11 06:18:04;;;;;;;2.78;2.17;;;3.40;85.20;;;;;;5055988;28;20386;-81
2020/12/11 06:20:31;;;;;;;2.50;1.92;;;3.50;85.20;;;;;;5053405;28;20074;-80
2020/12/11 06:23:23;;;;;;;3.20;2.42;;;3.50;85.20;;;;;;5055443;28;20359;-80
2020/12/11 06:25:53;;;;;;;3.00;2.17;;;3.50;85.10;;;;;;5052457;28;20470;-80
2020/12/11 06:28:39;;;;;;;2.70;2.00;;;3.50;85.20;;;;;;5057411;28;20362;-81
2020/12/11 06:31:07;;;;;;;2.28;2.08;;;3.50;85.10;;;;;;5048530;28;20028;-80
2020/12/11 06:33:34;;;;;;;3.97;2.88;;;3.50;85.10;;;;;;5061770;28;20036;-80
2020/12/11 06:36:01;;;;;;;2.80;1.90;;;3.50;85.10;;;;;;5060763;28;20074;-80
2020/12/11 06:38:42;;;;;;;3.88;2.28;;;3.60;85.10;;;;;;5079388;28;20063;-80
2020/12/11 06:41:08;;;;;;;2.92;2.22;;;3.60;85.10;;;;;;5071379;28;20036;-80
2020/12/11 06:43:39;;;;;;;4.28;2.58;;;3.60;85.10;;;;;;5058716;28;20024;-80
2020/12/11 06:46:11;;;;;;;2.50;2.05;;;3.60;85.10;;;;;;5060601;28;20059;-81
2020/12/11 06:48:56;;;;;;;3.13;2.35;;;3.60;85.10;;;;;;5054332;28;20033;-80
2020/12/11 06:51:22;;;;;;;2.00;1.83;;;3.60;85.10;;;;;;5056564;28;20017;-81
2020/12/11 06:53:47;;;;;;;2.95;2.30;;;3.70;85.20;;;;;;5055206;28;20063;-80
2020/12/11 06:56:43;;;;;;;2.67;2.15;;;3.70;85.10;;;;;;5049376;28;20021;-82
2020/12/11 06:59:25;;;;;;;2.47;1.95;;;3.70;85.00;;;;;;5051782;28;20074;-82
2020/12/11 07:01:51;;;;;;;2.72;2.08;;;3.70;85.00;;;;;;5056216;28;20453;-92
2020/12/11 07:04:17;;;;;;;2.53;2.17;;;3.70;85.00;;;;;;5064527;28;20021;-84
2020/12/11 07:06:51;;;;;;;2.60;1.80;;;3.70;84.90;;;;;;5055154;28;20040;-81
2020/12/11 07:09:18;;;;;;;2.60;2.10;;;3.80;85.00;;;;;;5053004;28;20060;-81
2020/12/11 07:11:46;;;;;;;3.25;2.30;;;3.80;85.00;;;;;;5054416;28;20025;-77
2020/12/11 07:14:13;;;;;;;2.88;1.83;;;3.80;84.90;;;;;;5055140;28;20017;-78
2020/12/11 07:16:40;;;;;;;3.60;2.10;;;3.90;84.90;;;;;;5054602;28;20462;-79
2020/12/11 07:19:07;;;;;;;2.92;2.13;;;3.90;84.90;;;;;;5049263;28;20040;-77
2020/12/11 07:21:33;;;;;;;2.65;1.80;;;3.90;84.80;;;;;;5053627;28;20452;-79
2020/12/11 07:24:03;;;;;;;3.40;2.75;;;3.90;84.80;;;;;;5054218;28;20017;-80
2020/12/11 07:26:29;;;;;;;3.08;2.55;;;3.90;84.70;;;;;;5052992;28;20037;-79
2020/12/11 07:29:05;;;;;;;3.33;1.88;;;3.90;84.70;;;;;;5052900;28;20020;-79
2020/12/11 07:31:39;;;;;;;2.38;1.80;;;3.90;85.30;;;;;;5049305;28;20040;-79
2020/12/11 07:34:19;;;;;;;2.72;1.90;;;4.00;84.80;;;;;;5052724;28;20025;-80
2020/12/11 07:36:46;;;;;;;2.70;1.98;;;3.90;84.70;;;;;;5050457;28;20031;-79
2020/12/11 07:39:17;;;;;;;3.15;2.10;;;3.90;84.70;;;;;;5052572;28;20029;-77
2020/12/11 07:41:47;;;;;;;3.17;2.35;;;4.00;84.80;;;;;;5051961;28;20381;-77
2020/12/11 07:44:34;;;;;;;3.05;2.45;;;4.00;85.40;;;;;;5043425;28;20064;-77
2020/12/11 07:47:08;;;;;;;2.10;1.90;;;3.90;84.70;;;;;;5051188;28;20079;-77
2020/12/11 07:49:39;;;;;;;2.42;1.63;;;4.00;84.80;;;;;;5053650;28;20017;-77
2020/12/11 07:52:07;;;;;;;3.67;1.95;;;4.00;84.80;;;;;;5049258;28;20029;-81
2020/12/11 07:54:40;;;;;;;2.40;1.88;;;4.00;84.80;;;;;;5041495;28;20059;-80
2020/12/11 07:57:15;;;;;;;2.35;1.92;;;4.00;84.60;;;;;;5052170;28;20029;-82
2020/12/11 08:00:00;;;;;;;3.05;1.83;;;4.00;84.60;;;;;;5053181;28;20052;-81
2020/12/11 08:02:27;;;;;;;2.22;1.92;;;4.10;84.60;;;;;;5044932;28;20041;-79
2020/12/11 08:04:54;;;;;;;2.47;1.90;;;4.10;84.60;;;;;;5050743;28;20036;-80
2020/12/11 08:07:31;;;;;;;2.63;2.42;;;4.10;84.50;;;;;;5047946;28;20036;-81
2020/12/11 08:10:10;;;;;;;3.17;2.17;;;4.20;84.50;;;;;;5046360;28;20029;-85
2020/12/11 08:12:38;;;;;;;1.88;1.67;;;4.20;84.40;;;;;;5053599;28;20044;-89
2020/12/11 08:15:05;;;;;;;2.20;1.77;;;4.20;84.40;;;;;;5051964;28;20516;-82
2020/12/11 08:17:32;;;;;;;2.53;1.73;;;4.20;84.40;;;;;;5050266;28;20060;-77
2020/12/11 08:20:04;;;;;;;3.38;2.58;;;4.20;84.40;;;;;;5052938;28;20064;-80
2020/12/11 08:22:35;;;;;;;2.65;1.80;;;4.20;84.30;;;;;;5052208;28;20360;-78
2020/12/11 08:25:17;;;;;;;2.03;1.60;;;4.30;85.00;;;;;;5050656;28;20140;-78
2020/12/11 08:27:43;;;;;;;3.28;2.15;;;4.30;84.40;;;;;;5037592;28;20044;-78
2020/12/11 08:30:17;;;;;;;3.03;1.98;;;4.30;84.40;;;;;;5052517;28;20135;-81
2020/12/11 08:32:45;;;;;;;3.28;2.25;;;4.30;84.40;;;;;;5053294;28;20064;-79
2020/12/11 08:35:17;;;;;;;3.05;2.13;;;4.30;84.40;;;;;;5050377;28;20021;-77
2020/12/11 08:37:53;;;;;;;2.60;2.20;;;4.30;84.30;;;;;;5053292;28;20039;-77
2020/12/11 08:40:19;;;;;;;3.45;2.20;;;4.30;84.30;;;;;;5051053;28;20115;-80
2020/12/11 08:45:56;;;;;;;2.72;2.20;;;4.40;84.30;;;;;;5051324;28;20068;-80
2020/12/11 08:51:19;;;;;;;4.25;2.47;;;4.30;84.20;;;;;;5039128;28;20034;-79
2020/12/11 08:53:49;;;;;;;3.70;2.50;;;4.40;84.30;;;;;;5047567;28;20028;-83
2020/12/11 08:56:14;;;;;;;4.00;2.25;;;4.40;84.30;;;;;;5046344;28;20033;-83
2020/12/11 08:58:40;;;;;;;2.97;2.17;;;4.30;84.20;;;;;;5044647;28;20025;-86
2020/12/11 09:01:05;;;;;;;3.42;2.08;;;4.40;84.30;;;;;;5041280;28;20428;-80
2020/12/11 09:03:31;;;;;;;2.85;1.80;;;4.40;84.90;;;;;;5036599;28;20021;-86
2020/12/11 09:05:56;;;;;;;3.25;2.05;;;4.50;84.20;;;;;;5051445;28;20041;-78
2020/12/11 09:08:22;;;;;;;1.85;1.55;;;4.50;84.20;;;;;;5050533;28;20444;-77
2020/12/11 09:10:48;;;;;;;2.47;2.03;;;4.50;84.10;;;;;;5050249;28;20140;-80
2020/12/11 09:13:13;;;;;;;4.45;3.35;;;4.60;84.10;;;;;;5045099;28;20038;-81
2020/12/11 09:15:39;;;;;;;3.65;2.30;;;4.60;84.00;;;;;;5032852;28;20386;-79
2020/12/11 09:18:04;;;;;;;2.28;1.92;;;4.60;84.00;;;;;;5045015;28;20508;-82
2020/12/11 09:20:30;;;;;;;2.95;2.20;;;4.60;83.90;;;;;;5048615;28;20499;-82
2020/12/11 09:22:57;;;;;;;2.53;1.70;;;4.60;84.00;;;;;;5040541;28;20392;-86
2020/12/11 09:25:23;;;;;;;2.67;1.85;;;4.60;84.10;;;;;;5036141;28;20072;-78
2020/12/11 09:27:48;;;;;;;2.40;2.13;;;4.50;84.20;;;;;;5051166;28;20056;-78
2020/12/11 09:35:31;;;;;;;2.15;1.80;;;4.50;84.30;;;;;;5054565;28;20491;-82
2020/12/11 09:37:57;;;;;;;2.67;2.05;;;4.60;84.30;;;;;;5040638;28;20104;-81
2020/12/11 09:40:34;;;;;;;2.28;2.08;;;4.60;84.30;;;;;;5044227;28;20029;-87
2020/12/11 09:45:51;;;;;;;2.80;1.80;;;4.50;84.40;;;;;;5049641;28;20064;-89
2020/12/11 09:48:23;;;;;;;2.00;1.70;;;4.60;84.50;;;;;;5057195;28;20017;-89
2020/12/11 09:56:10;;;;;;;3.20;2.25;;;4.70;84.20;;;;;;5064492;28;20028;-84
2020/12/11 09:58:40;;;;;;;3.83;2.30;;;4.70;84.20;;;;;;5065489;28;20043;-83
2020/12/11 10:01:07;;;;;;;2.83;2.15;;;4.80;84.20;;;;;;5065435;28;20023;-83
2020/12/11 10:03:38;;;;;;;2.72;2.25;;;4.80;84.20;;;;;;5075562;28;20469;-83
2020/12/11 10:06:08;;;;;;;2.92;1.92;;;4.90;84.20;;;;;;5073960;28;20218;-80
2020/12/11 10:08:34;;;;;;;4.22;2.80;;;4.90;84.10;;;;;;5065797;28;20033;-80
2020/12/11 10:10:59;;;;;;;3.10;2.05;;;4.90;84.10;;;;;;5081344;28;20105;-78
2020/12/11 10:13:27;;;;;;;2.65;2.13;;;5.00;84.10;;;;;;5069173;28;20028;-87
2020/12/11 10:15:53;;;;;;;2.03;1.83;;;5.00;84.10;;;;;;5071586;28;20044;-83
2020/12/11 10:18:19;;;;;;;2.72;2.10;;;5.00;84.00;;;;;;5078930;28;20395;-88
2020/12/11 10:20:44;;;;;;;1.95;1.70;;;5.10;84.10;;;;;;5088992;28;20060;-88
2020/12/11 10:23:10;;;;;;;2.70;2.40;;;5.10;84.00;;;;;;5073604;28;20063;-83
2020/12/11 10:25:36;;;;;;;2.85;2.40;;;5.10;84.00;;;;;;5063618;28;20048;-85
2020/12/11 10:28:02;;;;;;;3.00;2.70;;;5.10;84.00;;;;;;5069125;28;20029;-82
2020/12/11 10:30:28;;;;;;;2.45;1.83;;;5.10;84.00;;;;;;5054254;28;20064;-86
2020/12/11 10:32:54;;;;;;;2.28;1.80;;;5.10;84.00;;;;;;5049531;28;20104;-85
2020/12/11 10:35:20;;;;;;;2.30;1.80;;;5.20;84.10;;;;;;5048385;28;20027;-79
2020/12/11 10:37:45;;;;;;;3.08;2.22;;;5.20;84.10;;;;;;5041588;28;20041;-80
2020/12/11 10:40:11;;;;;;;2.13;1.77;;;5.20;84.00;;;;;;5050041;28;20112;-77
2020/12/11 10:42:37;;;;;;;2.88;2.00;;;5.30;84.00;;;;;;5059432;28;20021;-83
2020/12/11 10:45:03;;;;;;;1.67;1.50;;;5.30;83.90;;;;;;5053753;28;20037;-78
2020/12/11 10:47:29;;;;;;;2.50;2.05;;;5.40;84.00;;;;;;5057888;28;20124;-81
2020/12/11 10:49:55;;;;;;;3.13;2.13;;;5.40;83.90;;;;;;5059835;28;20025;-83
2020/12/11 10:52:20;;;;;;;2.83;1.92;;;5.40;83.90;;;;;;5053030;28;20401;-79
2020/12/11 10:54:47;;;;;;;2.67;2.00;;;5.40;83.90;;;;;;5051361;28;20029;-78
2020/12/11 10:57:13;;;;;;;2.58;1.58;;;5.40;83.90;;;;;;5051141;28;20044;-79
2020/12/11 10:59:39;;;;;;;2.40;1.70;;;5.40;84.00;;;;;;5054432;28;20025;-80
2020/12/11 11:02:05;;;;;;;2.35;1.65;;;5.40;84.00;;;;;;5050210;28;20090;-82
2020/12/11 11:04:31;;;;;;;2.42;1.88;;;5.40;84.10;;;;;;5055102;28;20108;-79
2020/12/11 11:07:12;;;;;;;2.28;1.80;;;5.40;84.00;;;;;;5051548;28;20124;-78
2020/12/11 11:09:46;;;;;;;3.38;2.20;;;5.40;84.10;;;;;;5045619;28;20017;-79
2020/12/11 11:27:35;;;;;;;2.67;1.70;;;5.40;84.40;;;;;;5053329;28;20063;-81
2020/12/11 11:30:00;;;;;;;3.35;2.55;;;5.40;84.40;;;;;;5053881;28;20070;-81
2020/12/11 11:32:27;;;;;;;2.38;1.73;;;5.40;84.40;;;;;;5054093;28;20025;-80
2020/12/11 11:34:52;;;;;;;2.20;1.80;;;5.40;84.40;;;;;;5052367;28;20028;-85
2020/12/11 11:37:18;;;;;;;2.33;2.13;;;5.50;85.20;;;;;;5037805;28;20029;-77
2020/12/11 11:39:44;;;;;;;2.28;1.75;;;5.50;84.50;;;;;;5053205;28;20036;-88
2020/12/11 11:42:09;;;;;;;3.72;1.98;;;5.50;84.60;;;;;;5054005;28;20082;-86
2020/12/11 11:47:20;;;;;;;2.00;1.83;;;5.50;84.50;;;;;;5053941;28;20096;-82
2020/12/11 11:54:43;;;;;;;2.28;1.95;;;5.60;84.40;;;;;;5042398;28;20446;-82
2020/12/11 11:57:09;;;;;;;2.97;2.00;;;5.70;84.40;;;;;;5052787;28;20043;-80
2020/12/11 11:59:34;;;;;;;2.75;1.77;;;5.60;84.40;;;;;;5049698;28;20067;-79
2020/12/11 12:02:00;;;;;;;3.10;2.15;;;5.60;84.50;;;;;;5053427;28;20315;-79
2020/12/11 12:04:26;;;;;;;2.20;1.77;;;5.60;84.50;;;;;;5038200;28;20029;-81
2020/12/11 12:06:51;;;;;;;2.88;2.00;;;5.60;84.60;;;;;;5050843;28;20186;-82
2020/12/11 12:09:18;;;;;;;3.05;1.80;;;5.70;84.60;;;;;;5049675;28;20028;-77
2020/12/11 12:11:44;;;;;;;2.38;1.85;;;5.60;84.60;;;;;;5051530;28;20027;-80
2020/12/11 12:14:10;;;;;;;2.40;1.88;;;5.70;84.70;;;;;;5053321;28;20092;-82
2020/12/11 12:16:37;;;;;;;2.55;1.77;;;5.70;84.60;;;;;;5051200;28;20083;-81
2020/12/11 12:19:04;;;;;;;1.60;1.48;;;5.70;84.70;;;;;;5050549;28;20017;-80
2020/12/11 12:22:20;;;;;;;2.28;1.73;;;5.70;84.70;;;;;;5049302;28;20029;-81
2020/12/11 12:29:46;;;;;;;2.55;2.00;;;5.70;84.80;;;;;;5052061;28;20039;-80
2020/12/11 12:32:15;;;;;;;3.03;1.85;;;5.80;84.80;;;;;;5051906;28;20024;-78
2020/12/11 12:34:58;;;;;;;2.63;1.77;;;5.80;84.80;;;;;;5047738;28;20032;-80
2020/12/11 12:42:38;;;;;;;2.45;1.50;;;5.70;85.00;;;;;;5043581;28;20025;-77
2020/12/11 12:45:05;;;;;;;2.70;1.95;;;5.80;85.00;;;;;;5054707;28;20032;-76
2020/12/11 12:47:31;;;;;;;1.77;1.60;;;5.80;85.00;;;;;;5051511;28;20163;-79
2020/12/11 12:49:58;;;;;;;2.08;1.73;;;5.80;85.00;;;;;;5057821;28;20083;-79
2020/12/11 12:52:24;;;;;;;1.63;1.38;;;5.90;85.00;;;;;;5043631;28;20037;-77
2020/12/11 12:54:49;;;;;;;2.25;1.63;;;5.90;84.90;;;;;;5052532;28;20013;-78
2020/12/11 12:57:29;;;;;;;2.45;1.60;;;5.90;84.90;;;;;;5053883;28;20025;-79
2020/12/11 13:00:09;;;;;;;;;;;5.90;84.80;;;;;;5052789;28;20028;-79
2020/12/11 13:03:16;;;;;;;2.08;1.88;;;5.90;84.70;;;;;;5053549;28;19908;-78
2020/12/11 13:05:36;;;;;;;1.80;1.65;;;6.00;84.90;;;;;;5045267;28;20033;-79
2020/12/11 13:08:03;;;;;;;1.98;1.73;;;6.00;84.80;;;;;;5046420;28;20032;-78
2020/12/11 13:10:30;;;;;;;2.80;1.73;;;6.00;84.90;;;;;;5050900;28;20028;-80
2020/12/11 13:12:56;;;;;;;2.42;1.80;;;6.00;85.00;;;;;;5051894;28;20074;-78
2020/12/11 13:15:21;;;;;;;1.83;1.50;;;6.00;85.00;;;;;;5052158;28;20029;-77
2020/12/11 13:17:47;;;;;;;2.30;1.67;;;6.00;85.10;;;;;;5045135;28;20033;-80
2020/12/11 13:20:16;;;;;;;1.67;1.58;;;6.00;85.00;;;;;;5044203;28;20421;-77
2020/12/11 13:25:40;;;;;;;1.83;1.67;;;6.00;85.10;;;;;;5050924;28;20029;-77
2020/12/11 13:28:05;;;;;;;2.03;1.80;;;6.00;85.10;;;;;;5052791;28;20025;-78
2020/12/11 13:30:30;;;;;;;2.47;1.65;;;6.00;85.20;;;;;;5055846;28;20017;-82
2020/12/11 13:32:56;;;;;;;1.58;1.40;;;6.00;85.20;;;;;;5053115;28;20064;-82
2020/12/11 13:35:21;;;;;;;2.17;1.55;;;6.00;85.20;;;;;;5056011;28;20017;-77
2020/12/11 13:37:47;;;;;;;1.60;1.50;;;6.00;85.20;;;;;;5046002;28;20032;-77
2020/12/11 13:40:13;;;;;;;1.42;1.30;;;6.00;85.20;;;;;;5036397;28;20511;-82
2020/12/11 13:42:38;;;;;;;1.20;1.20;;;6.10;85.20;;;;;;5051130;28;20044;-78
2020/12/11 13:45:04;;;;;;;2.22;1.45;;;6.10;85.20;;;;;;5045107;28;20048;-75
2020/12/11 13:47:30;;;;;;;2.28;1.98;;;6.20;85.20;;;;;;5049640;28;20104;-77
2020/12/11 13:49:55;;;;;;;2.13;1.63;;;6.10;85.10;;;;;;5047889;28;20768;-77
2020/12/11 13:52:21;;;;;;;2.03;1.55;;;6.20;85.20;;;;;;5049351;28;20399;-77
2020/12/11 13:54:47;;;;;;;2.38;1.48;;;6.20;85.10;;;;;;5050827;28;20111;-77
2020/12/11 13:57:12;;;;;;;1.27;1.17;;;6.20;85.00;;;;;;5053274;28;20020;-76